Time;durP1;ratioP1;P1;durP2;ratioP2;P2;SDS_P1;SDS_P2;PMS_P1;PMS_P2;Temp;Humidity;BMP_temperature;BMP_pressure;BME280_temperature;BME280_humidity;BME280_pressure;Samples;Min_cycle;Max_cycle;Signal;HPM_P1;HPM_P2
2022/01/25 00:24:16;;;;;;;18.35;10.65;;;;;;;0.88;80.67;102042.78;5081296;28;20438;-82
2022/01/25 00:24:20;;;;;;;17.40;11.52;;;;;;;0.85;80.69;102035.06;5074887;28;20499;-82
2022/01/25 00:29:57;;;;;;;17.73;12.23;;;;;;;0.68;80.38;102024.28;5051130;28;20500;-82
2022/01/25 00:32:23;;;;;;;15.07;11.80;;;;;;;0.56;79.36;102025.41;5074384;28;20386;-82
2022/01/25 00:34:48;;;;;;;19.07;11.37;;;;;;;0.59;79.97;102025.97;5080442;28;20816;-82
2022/01/25 00:37:13;;;;;;;15.20;11.30;;;;;;;0.60;79.97;102030.31;5080340;28;20390;-82
2022/01/25 00:39:40;;;;;;;17.23;11.87;;;;;;;0.61;79.59;102017.81;5079425;28;20387;-82
2022/01/25 00:42:09;;;;;;;13.82;10.35;;;;;;;0.62;79.77;102027.50;5076508;28;20488;-82
2022/01/25 00:44:37;;;;;;;14.77;10.45;;;;;;;0.62;80.02;102023.03;5087366;28;20502;-82
2022/01/25 00:47:06;;;;;;;17.08;10.73;;;;;;;0.60;80.00;102027.63;5083975;28;20426;-83
2022/01/25 00:49:38;;;;;;;20.63;10.47;;;;;;;0.57;80.28;102033.25;5077755;28;20781;-82
2022/01/25 00:54:53;;;;;;;17.08;10.98;;;;;;;0.56;80.62;102023.56;5055954;28;21052;-82
2022/01/25 00:57:18;;;;;;;16.50;10.98;;;;;;;0.54;80.42;102017.53;5087225;28;20402;-83
2022/01/25 00:59:44;;;;;;;17.05;10.23;;;;;;;0.57;80.37;102019.94;5074272;28;20415;-82
2022/01/25 01:02:13;;;;;;;15.05;9.90;;;;;;;0.51;79.48;102020.50;5081052;28;20407;-83
2022/01/25 01:04:41;;;;;;;16.63;10.90;;;;;;;0.46;79.55;102014.75;5072571;28;20422;-82
2022/01/25 01:07:08;;;;;;;15.40;10.38;;;;;;;0.48;79.88;102012.78;5074182;28;20415;-82
2022/01/25 01:09:38;;;;;;;15.07;10.07;;;;;;;0.48;80.38;102018.13;5090649;28;20389;-82
2022/01/25 01:12:17;;;;;;;14.85;10.40;;;;;;;0.45;80.13;102019.25;5078068;28;20761;-82
2022/01/25 01:14:59;;;;;;;14.50;9.93;;;;;;;0.40;80.49;102020.63;5079638;28;20450;-82
2022/01/25 01:28:52;;;;;;;15.48;11.35;;;;;;;0.40;80.40;102020.63;5087355;28;20450;-82
2022/01/25 01:31:33;;;;;;;16.27;10.68;;;;;;;0.34;80.36;102031.88;5074205;28;20461;-82
2022/01/25 01:47:46;;;;;;;15.55;10.32;;;;;;;0.22;80.59;102039.19;5079135;28;20829;-82
2022/01/25 01:50:16;;;;;;;17.10;10.60;;;;;;;0.21;80.52;102042.81;5073824;28;20447;-82
2022/01/25 01:52:42;;;;;;;20.65;11.73;;;;;;;0.21;80.00;102042.81;5074642;28;20746;-83
2022/01/25 01:55:08;;;;;;;15.07;11.23;;;;;;;0.21;79.77;102050.81;5083375;28;20474;-82
2022/01/25 01:57:34;;;;;;;16.92;11.98;;;;;;;0.13;79.03;102053.34;5082937;28;20419;-83
2022/01/25 01:59:59;;;;;;;16.02;11.95;;;;;;;0.11;79.54;102060.63;5072585;28;20384;-83
2022/01/25 02:02:25;;;;;;;18.93;12.37;;;;;;;0.09;79.18;102057.25;5081326;28;20451;-83
2022/01/25 02:04:51;;;;;;;17.53;12.03;;;;;;;0.07;79.42;102053.06;5072516;28;20388;-83
2022/01/25 02:07:16;;;;;;;22.27;13.40;;;;;;;0.06;79.07;102046.88;5081855;28;20412;-82
2022/01/25 02:09:41;;;;;;;21.67;13.57;;;;;;;0.02;78.99;102040.13;5079828;28;20399;-83
2022/01/25 02:12:07;;;;;;;23.00;13.70;;;;;;;-0.02;79.16;102039.56;5085727;28;20857;-83
2022/01/25 02:14:35;;;;;;;21.42;12.85;;;;;;;-0.03;79.46;102045.88;5087601;28;20412;-83
2022/01/25 02:17:24;;;;;;;20.00;12.88;;;;;;;-0.09;79.86;102046.41;5079306;28;20391;-83
2022/01/25 02:23:21;;;;;;;16.70;11.93;;;;;;;-0.22;80.22;102055.63;5036518;28;20495;-83
2022/01/25 02:25:53;;;;;;;17.88;11.55;;;;;;;-0.28;80.37;102051.72;5078074;28;20437;-83
2022/01/25 02:28:19;;;;;;;20.20;11.40;;;;;;;-0.21;80.50;102050.19;5074638;28;20551;-83
2022/01/25 02:30:45;;;;;;;21.98;12.90;;;;;;;-0.16;80.12;102042.63;5080473;28;20407;-83
2022/01/25 02:33:11;;;;;;;19.30;11.48;;;;;;;-0.13;80.09;102044.16;5111833;27;20409;-83
2022/01/25 02:35:37;;;;;;;19.30;12.20;;;;;;;-0.10;79.42;102043.91;5075359;28;20500;-83
2022/01/25 02:38:03;;;;;;;18.10;10.55;;;;;;;-0.13;79.37;102047.66;5072478;28;20491;-83
2022/01/25 02:40:28;;;;;;;16.30;11.30;;;;;;;-0.15;79.46;102046.13;5088787;28;20839;-83
2022/01/25 02:42:54;;;;;;;22.85;12.15;;;;;;;-0.12;79.37;102040.53;5086815;28;20408;-83
2022/01/25 02:45:19;;;;;;;19.02;12.90;;;;;;;-0.16;79.27;102034.63;5077301;28;20396;-83
2022/01/25 02:50:29;;;;;;;22.07;11.17;;;;;;;-0.22;79.88;102029.84;5078134;28;20455;-83
2022/01/25 02:52:55;;;;;;;20.30;11.55;;;;;;;-0.20;79.70;102029.72;5078216;28;20404;-83
2022/01/25 02:55:20;;;;;;;19.10;12.45;;;;;;;-0.18;79.13;102020.59;5084237;28;20402;-84
2022/01/25 02:57:46;;;;;;;24.60;15.33;;;;;;;-0.29;78.57;102025.19;5082514;28;20964;-83
2022/01/25 03:00:12;;;;;;;46.83;19.13;;;;;;;-0.49;79.51;102013.63;5074986;28;20880;-83
2022/01/25 03:02:38;;;;;;;69.50;19.67;;;;;;;-0.51;80.11;102012.94;5077604;28;20977;-83
2022/01/25 03:05:04;;;;;;;53.33;19.10;;;;;;;-0.47;79.78;102014.38;5074812;28;20478;-84
2022/01/25 03:07:30;;;;;;;33.80;18.67;;;;;;;-0.46;79.87;102010.69;5085037;28;20420;-83
2022/01/25 03:09:56;;;;;;;32.20;18.33;;;;;;;-0.41;80.32;102015.63;5070107;28;20423;-83
2022/01/25 03:12:32;;;;;;;34.00;17.92;;;;;;;-0.43;80.60;102010.47;5071978;28;20402;-84
2022/01/25 03:15:21;;;;;;;29.08;18.40;;;;;;;-0.40;80.66;102007.53;5071157;28;20504;-84
2022/01/25 03:17:53;;;;;;;28.43;17.37;;;;;;;-0.38;81.20;102020.69;5070913;28;20425;-84
2022/01/25 03:20:34;;;;;;;26.88;17.08;;;;;;;-0.38;81.28;102018.88;5072876;28;20825;-84
2022/01/25 03:23:05;;;;;;;26.70;17.13;;;;;;;-0.38;81.23;102018.88;5091279;28;20409;-83
2022/01/25 03:25:31;;;;;;;25.83;16.38;;;;;;;-0.37;81.12;102017.06;5079831;28;20395;-83
2022/01/25 03:27:57;;;;;;;22.30;15.48;;;;;;;-0.42;80.84;102014.78;5087528;28;20430;-84
2022/01/25 03:30:24;;;;;;;26.67;16.30;;;;;;;-0.42;80.54;102027.25;5078254;28;20411;-84
2022/01/25 03:32:49;;;;;;;27.88;16.10;;;;;;;-0.45;81.06;102025.72;5076879;28;20408;-84
2022/01/25 03:35:14;;;;;;;28.97;18.73;;;;;;;-0.46;81.48;102024.03;5078864;28;20401;-84
2022/01/25 03:37:40;;;;;;;33.63;18.38;;;;;;;-0.42;81.43;102032.59;5089944;28;20602;-84
2022/01/25 03:40:06;;;;;;;27.83;18.10;;;;;;;-0.42;81.23;102030.78;5084425;28;20391;-83
2022/01/25 03:42:36;;;;;;;30.30;16.85;;;;;;;-0.39;81.45;102034.97;5115846;27;20412;-83
2022/01/25 03:45:02;;;;;;;32.25;18.67;;;;;;;-0.36;81.10;102029.41;5073694;28;20411;-84
2022/01/25 03:47:42;;;;;;;32.15;19.90;;;;;;;-0.35;80.36;102026.59;5073732;28;20403;-84
2022/01/25 03:50:08;;;;;;;31.20;17.60;;;;;;;-0.31;79.91;102022.69;5078610;28;20392;-84
2022/01/25 03:52:35;;;;;;;30.63;17.08;;;;;;;-0.26;79.97;102022.25;5073502;28;20395;-84
2022/01/25 03:55:01;;;;;;;28.17;16.50;;;;;;;-0.23;80.04;102027.34;5090652;28;20398;-84
2022/01/25 03:57:29;;;;;;;27.17;17.65;;;;;;;-0.22;80.20;102029.00;5074784;28;20388;-84
2022/01/25 03:59:57;;;;;;;30.35;18.45;;;;;;;-0.23;80.23;102028.16;5083241;28;20436;-84
2022/01/25 04:02:23;;;;;;;29.27;17.60;;;;;;;-0.29;79.91;102028.69;5078337;28;20406;-84
2022/01/25 04:04:50;;;;;;;27.75;18.85;;;;;;;-0.26;79.89;102036.41;5076097;28;20797;-84
2022/01/25 04:07:24;;;;;;;35.40;19.88;;;;;;;-0.27;80.08;102040.09;5074719;28;20402;-84
2022/01/25 04:09:49;;;;;;;27.42;17.90;;;;;;;-0.21;80.12;102039.53;5087755;28;20439;-84
2022/01/25 04:12:17;;;;;;;33.17;19.07;;;;;;;-0.26;80.43;102036.41;5080005;28;20400;-84
2022/01/25 04:14:42;;;;;;;52.28;18.75;;;;;;;-0.55;82.22;102039.00;5074135;28;20446;-83
2022/01/25 04:17:10;;;;;;;36.77;18.00;;;;;;;-0.71;83.90;102040.47;5073058;28;20422;-83
2022/01/25 04:19:41;;;;;;;38.60;18.95;;;;;;;-0.66;84.23;102039.09;5078002;28;20412;-84
2022/01/25 04:27:08;;;;;;;33.42;18.25;;;;;;;-0.26;83.32;102038.22;5084033;28;20795;-84
2022/01/25 04:29:33;;;;;;;31.20;16.93;;;;;;;-0.16;82.48;102044.44;5081469;28;20391;-84
2022/01/25 04:31:59;;;;;;;47.33;18.93;;;;;;;-0.10;82.06;102039.41;5076238;28;20486;-84
2022/01/25 04:48:53;;;;;;;42.10;18.17;;;;;;;-0.14;81.35;102027.34;5083537;28;20381;-84
2022/01/25 04:53:55;;;;;;;111.67;22.73;;;;;;;-0.22;82.05;102021.00;5085895;28;20653;-84
2022/01/25 04:56:40;;;;;;;157.18;24.33;;;;;;;-0.25;81.86;102014.13;5080253;28;20553;-84
2022/01/25 04:59:18;;;;;;;149.98;23.35;;;;;;;-0.25;82.09;102015.94;5080193;28;20396;-85
2022/01/25 05:01:52;;;;;;;159.30;24.47;;;;;;;-0.27;82.00;102012.59;5073114;28;20429;-85
2022/01/25 05:04:25;;;;;;;143.13;23.38;;;;;;;-0.32;82.94;102012.16;5084503;28;21050;-85
2022/01/25 05:06:53;;;;;;;105.25;22.58;;;;;;;-0.40;83.27;102015.50;5086031;28;20428;-84
2022/01/25 05:09:20;;;;;;;166.10;25.03;;;;;;;-0.80;84.55;102010.19;5076277;28;20855;-84
2022/01/25 05:11:48;;;;;;;169.38;25.63;;;;;;;-0.85;85.65;102012.38;5080448;28;20927;-85
2022/01/25 05:14:22;;;;;;;179.90;26.83;;;;;;;-0.95;86.63;102006.16;5084836;28;20530;-85
2022/01/25 05:16:54;;;;;;;133.70;24.05;;;;;;;-0.75;85.74;102012.44;5079555;28;20487;-85
2022/01/25 05:19:35;;;;;;;173.88;26.08;;;;;;;-0.90;87.03;102019.94;5087483;28;20892;-84
2022/01/25 05:22:12;;;;;;;115.78;24.02;;;;;;;-0.81;86.83;102020.94;5076899;28;20413;-84
2022/01/25 05:24:48;;;;;;;128.23;24.50;;;;;;;-0.94;87.33;102015.00;5077567;28;20458;-84
2022/01/25 05:27:15;;;;;;;94.55;24.95;;;;;;;-0.81;87.17;102018.28;5077165;28;20943;-84
2022/01/25 05:29:41;;;;;;;97.57;23.85;;;;;;;-0.83;87.24;102021.09;5084592;28;20432;-84
2022/01/25 05:32:06;;;;;;;90.93;21.70;;;;;;;-0.87;87.09;102021.50;5082600;28;20804;-84
2022/01/25 05:34:32;;;;;;;60.97;20.93;;;;;;;-0.79;86.60;102027.81;5086962;28;20401;-84
2022/01/25 05:37:09;;;;;;;74.33;22.73;;;;;;;-0.82;87.35;102028.09;5077707;28;20430;-84
2022/01/25 05:39:36;;;;;;;60.40;22.00;;;;;;;-0.80;87.03;102031.47;5079515;28;20447;-85
2022/01/25 05:47:17;;;;;;;102.50;22.55;;;;;;;-0.84;87.12;102027.38;5082634;28;20394;-85
2022/01/25 05:49:43;;;;;;;117.97;25.60;;;;;;;-0.79;87.87;102025.16;5080491;28;20396;-84
2022/01/25 05:52:18;;;;;;;162.67;25.93;;;;;;;-0.72;86.78;102017.47;5079620;28;20404;-84
2022/01/25 05:54:46;;;;;;;120.07;22.73;;;;;;;-0.80;87.06;102019.97;5080128;28;25119;-84
2022/01/25 05:57:11;;;;;;;80.57;20.58;;;;;;;-0.82;87.77;102020.09;5074115;28;20395;-84
2022/01/25 05:59:37;;;;;;;135.90;21.53;;;;;;;-0.86;87.80;102028.50;5078407;28;20402;-81
2022/01/25 06:02:04;;;;;;;143.55;22.13;;;;;;;-1.17;87.91;102020.50;5073205;28;20408;-85
2022/01/25 06:04:29;;;;;;;133.98;23.98;;;;;;;-1.33;88.89;102019.25;5076121;28;20415;-82
2022/01/25 06:06:54;;;;;;;75.47;20.73;;;;;;;-1.48;89.38;102024.03;5087451;28;20444;-82
2022/01/25 06:09:19;;;;;;;68.50;21.90;;;;;;;-1.51;89.58;102024.31;5079012;28;20424;-82
2022/01/25 06:11:45;;;;;;;76.83;21.63;;;;;;;-1.46;90.24;102026.59;5082570;28;20937;-82
2022/01/25 06:14:10;;;;;;;82.30;24.60;;;;;;;-1.40;89.74;102032.25;5082045;28;20957;-81
2022/01/25 06:16:38;;;;;;;70.07;28.07;;;;;;;-1.27;89.76;102032.03;5077232;28;20386;-82
2022/01/25 06:19:04;;;;;;;92.50;25.83;;;;;;;-1.18;89.32;102026.78;5104358;28;20401;-81
2022/01/25 06:21:29;;;;;;;56.20;21.77;;;;;;;-1.14;89.35;102033.53;5081497;28;20396;-81
2022/01/25 06:23:55;;;;;;;48.00;19.67;;;;;;;-1.03;88.82;102040.59;5081395;28;20423;-82
2022/01/25 06:26:21;;;;;;;62.55;21.15;;;;;;;-0.96;87.99;102040.91;5073321;28;20791;-83
2022/01/25 06:28:46;;;;;;;55.42;18.77;;;;;;;-0.93;88.06;102041.50;5076097;28;20486;-82
2022/01/25 06:31:11;;;;;;;87.63;21.97;;;;;;;-0.89;88.16;102042.09;5072849;28;20465;-81
2022/01/25 06:33:41;;;;;;;80.88;21.15;;;;;;;-0.91;87.57;102044.84;5073290;28;20639;-82
2022/01/25 06:36:07;;;;;;;75.47;22.02;;;;;;;-0.77;88.11;102043.66;5121081;27;20807;-82
2022/01/25 06:38:33;;;;;;;86.78;23.98;;;;;;;-0.72;87.50;102050.28;5078573;28;20475;-82
2022/01/25 06:40:58;;;;;;;117.15;25.73;;;;;;;-0.82;87.90;102043.22;5081988;28;20750;-82
2022/01/25 06:43:23;;;;;;;90.80;28.80;;;;;;;-0.75;87.66;102042.56;5079571;28;20419;-82
2022/01/25 06:45:56;;;;;;;106.07;28.77;;;;;;;-0.73;87.05;102045.94;5080490;28;20405;-82
2022/01/25 06:48:22;;;;;;;93.30;26.98;;;;;;;-0.66;87.57;102048.91;5078155;28;20390;-82
2022/01/25 06:50:48;;;;;;;90.43;27.95;;;;;;;-0.64;87.42;102053.13;5082367;28;20398;-82
2022/01/25 06:53:13;;;;;;;87.28;28.50;;;;;;;-0.75;87.28;102055.88;5085800;28;20386;-84
2022/01/25 06:55:39;;;;;;;74.88;24.70;;;;;;;-0.86;87.51;102055.97;5073505;28;20396;-83
2022/01/25 06:58:05;;;;;;;63.13;22.83;;;;;;;-1.03;87.91;102063.69;5085881;28;20877;-80
2022/01/25 07:00:30;;;;;;;67.83;21.17;;;;;;;-1.05;88.37;102067.31;5080106;28;20493;-81
2022/01/25 07:03:02;;;;;;;72.07;21.93;;;;;;;-1.06;88.64;102068.31;5077304;28;20407;-80
2022/01/25 07:05:28;;;;;;;54.47;22.60;;;;;;;-0.95;88.60;102067.38;5075576;28;20407;-82
2022/01/25 07:07:54;;;;;;;42.97;21.08;;;;;;;-0.82;88.07;102061.84;5086356;28;20395;-81
2022/01/25 07:10:20;;;;;;;68.80;22.35;;;;;;;-1.00;87.46;102066.94;5079299;28;20438;-79
2022/01/25 07:12:45;;;;;;;64.35;21.98;;;;;;;-0.88;88.33;102070.34;5088714;28;20405;-81
2022/01/25 07:15:12;;;;;;;60.40;22.17;;;;;;;-0.75;86.77;102074.50;5077245;28;20407;-80
2022/01/25 07:17:38;;;;;;;61.28;23.35;;;;;;;-0.81;85.79;102079.50;5087655;28;20450;-79
2022/01/25 07:20:06;;;;;;;45.77;20.60;;;;;;;-1.17;86.95;102080.81;5071207;28;20474;-80
2022/01/25 07:22:32;;;;;;;76.45;21.98;;;;;;;-1.45;88.26;102084.97;5091770;28;20394;-81
2022/01/25 07:24:57;;;;;;;70.70;21.30;;;;;;;-1.36;88.71;102084.19;5075150;28;20821;-81
2022/01/25 07:27:22;;;;;;;73.30;21.60;;;;;;;-1.30;88.03;102090.81;5087977;28;20841;-81
2022/01/25 07:29:48;;;;;;;69.67;20.30;;;;;;;-1.48;88.69;102087.84;5077492;28;20402;-82
2022/01/25 07:32:13;;;;;;;68.53;23.13;;;;;;;-1.64;89.30;102087.44;5079427;28;20439;-82
2022/01/25 07:34:38;;;;;;;102.30;21.80;;;;;;;-1.61;89.57;102098.66;5070027;28;20486;-81
2022/01/25 07:37:04;;;;;;;80.83;21.13;;;;;;;-1.25;90.16;102091.28;5086977;28;20878;-81
2022/01/25 07:39:29;;;;;;;56.27;21.27;;;;;;;-0.92;87.79;102090.25;5077462;28;20884;-81
2022/01/25 07:41:59;;;;;;;73.67;22.93;;;;;;;-0.90;85.23;102085.63;5079597;28;20461;-81
2022/01/25 07:44:30;;;;;;;64.97;23.40;;;;;;;-0.80;84.97;102089.19;5085888;28;20823;-81
2022/01/25 07:47:00;;;;;;;60.10;22.57;;;;;;;-0.69;84.82;102084.59;5087570;28;20492;-82
2022/01/25 07:49:26;;;;;;;35.83;21.20;;;;;;;-0.64;84.25;102087.72;5073647;28;20874;-81
2022/01/25 07:51:52;;;;;;;29.73;20.80;;;;;;;-0.56;83.95;102087.91;5081704;28;20452;-81
2022/01/25 07:54:20;;;;;;;33.28;21.77;;;;;;;-0.49;82.96;102087.38;5080765;28;20407;-82
2022/01/25 07:56:49;;;;;;;29.95;20.10;;;;;;;-0.46;82.62;102085.28;5071723;28;20457;-82
2022/01/25 07:59:15;;;;;;;31.45;20.60;;;;;;;-0.42;82.79;102075.19;5082777;28;20450;-82
2022/01/25 08:01:41;;;;;;;31.87;20.63;;;;;;;-0.36;82.68;102080.81;5080929;28;20414;-82
2022/01/25 08:04:08;;;;;;;37.22;20.27;;;;;;;-0.32;82.29;102074.25;5073551;28;20415;-82
2022/01/25 08:06:34;;;;;;;49.15;21.80;;;;;;;-0.31;81.67;102078.63;5071938;28;20396;-82
2022/01/25 08:09:01;;;;;;;44.20;20.95;;;;;;;-0.26;81.33;102081.72;5083941;28;20473;-82
2022/01/25 08:11:27;;;;;;;48.47;22.13;;;;;;;-0.22;81.77;102085.78;5084450;28;20429;-82
2022/01/25 08:13:59;;;;;;;44.77;21.70;;;;;;;-0.16;81.76;102084.41;5079508;28;20921;-82
2022/01/25 08:16:25;;;;;;;61.22;22.40;;;;;;;-0.08;81.21;102085.44;5081387;28;20545;-82
2022/01/25 08:18:50;;;;;;;54.23;21.20;;;;;;;-0.05;80.94;102093.13;5075647;28;20484;-82
2022/01/25 08:21:16;;;;;;;129.15;25.95;;;;;;;-0.01;80.37;102088.38;5080103;28;20435;-82
2022/01/25 08:23:41;;;;;;;105.43;23.88;;;;;;;0.00;80.00;102090.91;5078174;28;20416;-82
2022/01/25 08:26:06;;;;;;;69.33;21.80;;;;;;;0.03;80.32;102094.28;5084001;28;20460;-82
2022/01/25 08:28:32;;;;;;;83.93;22.33;;;;;;;-0.04;81.11;102094.84;5073497;28;20428;-82
2022/01/25 08:31:02;;;;;;;39.00;20.48;;;;;;;-0.01;81.59;102091.03;5073927;28;20435;-82
2022/01/25 08:33:27;;;;;;;117.13;22.92;;;;;;;0.10;81.04;102090.91;5072080;28;20815;-82
2022/01/25 08:35:53;;;;;;;145.93;27.33;;;;;;;0.21;80.55;102095.28;5079364;28;20970;-82
2022/01/25 08:38:18;;;;;;;83.13;25.00;;;;;;;0.25;79.92;102088.72;5084303;28;20408;-82
2022/01/25 08:40:50;;;;;;;61.88;23.13;;;;;;;0.21;80.79;102090.81;5082464;28;20534;-82
2022/01/25 08:43:18;;;;;;;101.88;24.52;;;;;;;0.32;80.63;102088.03;5083953;28;20905;-82
2022/01/25 08:45:43;;;;;;;60.58;23.77;;;;;;;0.43;80.20;102085.22;5076906;28;20429;-82
2022/01/25 08:48:09;;;;;;;53.43;22.07;;;;;;;0.44;80.61;102086.91;5082200;28;20420;-82
2022/01/25 08:50:34;;;;;;;64.80;21.60;;;;;;;0.31;81.18;102090.81;5081756;28;20795;-82
2022/01/25 08:52:59;;;;;;;61.20;18.67;;;;;;;-0.12;83.08;102084.00;5087267;28;20400;-82
2022/01/25 08:55:25;;;;;;;45.90;19.20;;;;;;;-0.02;84.15;102090.19;5085659;28;20408;-79
2022/01/25 08:57:52;;;;;;;63.75;20.20;;;;;;;0.00;83.48;102088.22;5073942;28;20677;-81
2022/01/25 09:00:17;;;;;;;79.18;19.20;;;;;;;-0.14;84.43;102095.78;5076548;28;20404;-81
2022/01/25 09:02:43;;;;;;;87.65;20.63;;;;;;;0.14;84.49;102096.81;5079849;28;20411;-81
2022/01/25 09:05:09;;;;;;;62.38;19.70;;;;;;;0.51;82.95;102090.69;5075377;28;20477;-81
2022/01/25 09:07:35;;;;;;;52.70;18.95;;;;;;;0.79;81.51;102091.66;5075486;28;20397;-82
2022/01/25 09:10:00;;;;;;;72.70;19.48;;;;;;;0.59;81.51;102087.34;5076916;28;20457;-81
2022/01/25 09:12:27;;;;;;;65.60;19.50;;;;;;;0.24;83.51;102089.69;5081298;28;20410;-82
2022/01/25 09:14:52;;;;;;;35.47;20.05;;;;;;;0.57;83.41;102096.44;5086728;28;20444;-82
2022/01/25 09:17:18;;;;;;;66.10;20.30;;;;;;;0.34;82.94;102095.88;5083800;28;20433;-82
2022/01/25 09:19:44;;;;;;;72.75;21.33;;;;;;;0.36;83.78;102100.06;5073996;28;20416;-82
2022/01/25 09:22:10;;;;;;;51.43;21.40;;;;;;;0.74;83.54;102104.59;5080114;28;20414;-82
2022/01/25 09:24:37;;;;;;;67.73;22.20;;;;;;;0.85;81.60;102103.59;5091136;28;20510;-82
2022/01/25 09:27:05;;;;;;;55.55;21.35;;;;;;;0.75;82.58;102106.28;5073742;28;20442;-82
2022/01/25 09:29:30;;;;;;;81.55;23.30;;;;;;;0.84;82.22;102113.44;5087833;28;20463;-82
2022/01/25 09:31:56;;;;;;;94.47;24.07;;;;;;;0.91;82.59;102111.03;5071943;28;20410;-82
2022/01/25 09:34:23;;;;;;;129.07;24.40;;;;;;;0.63;83.09;102106.53;5077290;28;20691;-82
2022/01/25 09:36:50;;;;;;;138.10;26.45;;;;;;;0.31;85.37;102101.47;5087888;28;20509;-82
2022/01/25 09:39:16;;;;;;;94.65;25.25;;;;;;;0.41;85.14;102113.84;5059737;28;20417;-82
2022/01/25 09:41:44;;;;;;;88.20;24.57;;;;;;;0.48;84.60;102096.31;5089917;28;20493;-82
2022/01/25 09:44:10;;;;;;;62.80;23.88;;;;;;;0.68;84.40;102107.84;5087334;28;20427;-81
2022/01/25 09:46:36;;;;;;;112.17;25.67;;;;;;;0.60;84.72;102106.81;5075199;28;20412;-82
2022/01/25 09:49:01;;;;;;;52.63;24.50;;;;;;;0.61;85.75;102109.38;5085866;28;20393;-82
2022/01/25 09:51:28;;;;;;;99.23;25.77;;;;;;;1.11;84.16;102095.84;5073056;28;20408;-81
2022/01/25 09:53:54;;;;;;;114.10;28.20;;;;;;;1.33;82.64;102099.00;5080406;28;20821;-82
2022/01/25 09:56:19;;;;;;;96.82;25.75;;;;;;;1.02;82.89;102102.88;5078062;28;20486;-82
2022/01/25 09:58:44;;;;;;;69.80;24.77;;;;;;;0.87;83.70;102107.81;5078612;28;20401;-82
2022/01/25 10:01:11;;;;;;;89.45;25.10;;;;;;;0.86;84.36;102115.94;5075525;28;20410;-82
2022/01/25 10:03:39;;;;;;;119.70;31.37;;;;;;;1.11;83.30;102115.38;5069448;28;20485;-81
2022/01/25 10:06:13;;;;;;;103.28;29.90;;;;;;;1.24;82.52;102112.41;5076108;28;20742;-82
2022/01/25 10:08:38;;;;;;;90.28;31.95;;;;;;;1.33;81.16;102116.88;5071194;28;20403;-81
2022/01/25 10:11:12;;;;;;;78.73;30.70;;;;;;;1.42;81.35;102116.84;5072346;28;20414;-82
2022/01/25 10:13:40;;;;;;;61.17;29.48;;;;;;;1.02;82.91;102130.41;5073577;28;25208;-81
2022/01/25 10:16:15;;;;;;;67.05;28.73;;;;;;;0.96;83.88;102122.13;5085061;28;20824;-81
2022/01/25 10:18:46;;;;;;;55.42;28.95;;;;;;;1.32;83.42;102126.69;5073088;28;25116;-82
2022/01/25 10:21:36;;;;;;;57.63;29.00;;;;;;;1.53;82.21;102130.03;5077942;28;20827;-81
2022/01/25 10:24:05;;;;;;;70.85;31.77;;;;;;;1.65;80.95;102127.19;5076209;28;20423;-81
2022/01/25 10:26:39;;;;;;;59.00;30.45;;;;;;;1.66;80.36;102118.16;5074063;28;20471;-81
2022/01/25 10:29:08;;;;;;;55.03;31.52;;;;;;;1.33;82.19;102116.88;5098401;28;20452;-81
2022/01/25 10:31:58;;;;;;;56.78;32.60;;;;;;;1.55;81.63;102122.69;5079336;28;20403;-83
2022/01/25 10:34:33;;;;;;;63.78;32.40;;;;;;;1.17;82.60;102117.47;5078244;28;20488;-83
2022/01/25 10:37:07;;;;;;;60.05;33.72;;;;;;;1.20;83.98;102122.53;5073558;28;20421;-82
2022/01/25 10:39:34;;;;;;;50.00;32.10;;;;;;;1.26;83.13;102129.09;5086128;28;20495;-82
2022/01/25 10:42:11;;;;;;;48.53;30.85;;;;;;;0.97;83.33;102124.66;5075357;28;20910;-82
2022/01/25 10:44:50;;;;;;;52.83;33.10;;;;;;;1.09;83.54;102127.19;5079252;28;20424;-81
2022/01/25 10:47:16;;;;;;;46.50;31.33;;;;;;;1.14;83.04;102122.25;5071733;28;25094;-82
2022/01/25 10:49:47;;;;;;;50.95;32.85;;;;;;;1.30;82.40;102125.16;5076634;28;20815;-85
2022/01/25 10:52:12;;;;;;;57.78;35.03;;;;;;;1.52;80.64;102127.47;5077017;28;20890;-83
2022/01/25 10:54:39;;;;;;;58.17;34.63;;;;;;;1.19;81.24;102128.84;5073681;28;20482;-82
2022/01/25 10:57:15;;;;;;;56.57;35.23;;;;;;;1.11;82.57;102133.22;5068440;28;20803;-81
2022/01/25 10:59:40;;;;;;;58.90;36.35;;;;;;;1.42;81.30;102132.00;5077922;28;20954;-82
2022/01/25 11:02:07;;;;;;;60.60;36.30;;;;;;;1.71;80.33;102129.28;5079899;28;20493;-82
2022/01/25 11:04:36;;;;;;;68.97;37.15;;;;;;;1.50;80.67;102126.81;5082677;28;20421;-82
2022/01/25 11:07:07;;;;;;;66.70;39.10;;;;;;;1.61;80.41;102121.28;5086166;28;20885;-82
2022/01/25 11:09:37;;;;;;;68.20;39.17;;;;;;;1.47;80.68;102121.75;5085337;28;21002;-82
2022/01/25 11:12:06;;;;;;;76.20;41.75;;;;;;;1.49;81.88;102120.59;5070825;28;20415;-82
2022/01/25 11:14:50;;;;;;;72.68;43.17;;;;;;;1.84;79.96;102114.59;5071845;28;20404;-83
2022/01/25 11:17:19;;;;;;;75.70;42.00;;;;;;;1.75;79.34;102112.78;5076993;28;20414;-82
2022/01/25 11:19:44;;;;;;;74.75;42.83;;;;;;;1.81;79.63;102114.03;5083299;28;20442;-82
2022/01/25 11:22:12;;;;;;;79.63;43.97;;;;;;;1.54;80.52;102112.16;5080932;28;20408;-82
2022/01/25 11:24:39;;;;;;;87.55;44.28;;;;;;;1.71;81.00;102107.88;5074041;28;20845;-83
2022/01/25 11:27:06;;;;;;;79.07;44.38;;;;;;;1.88;80.25;102113.28;5077450;28;20415;-83
2022/01/25 11:29:37;;;;;;;81.90;44.17;;;;;;;1.37;81.31;102112.91;5070730;28;20418;-84
2022/01/25 11:32:08;;;;;;;81.10;45.22;;;;;;;1.29;82.42;102105.63;5069569;28;20399;-83
2022/01/25 11:34:35;;;;;;;86.15;46.63;;;;;;;1.32;82.91;102109.81;5095816;28;20778;-83
2022/01/25 11:37:04;;;;;;;88.50;47.23;;;;;;;1.58;82.25;102105.56;5069372;28;20829;-82
2022/01/25 11:39:31;;;;;;;89.30;48.13;;;;;;;1.92;80.64;102100.44;5079092;28;20399;-82
2022/01/25 11:42:07;;;;;;;89.97;49.20;;;;;;;1.95;80.21;102095.66;5075865;28;20443;-81
2022/01/25 11:44:33;;;;;;;96.25;49.28;;;;;;;1.99;80.05;102101.53;5079665;28;20937;-82
2022/01/25 11:47:10;;;;;;;90.28;49.80;;;;;;;1.85;80.88;102097.53;5085054;28;20947;-81
2022/01/25 11:49:55;;;;;;;83.95;47.05;;;;;;;1.58;82.31;102097.53;5082205;28;20403;-81
2022/01/25 11:52:24;;;;;;;83.07;46.20;;;;;;;1.42;82.26;102095.47;5073403;28;20429;-81
2022/01/25 11:55:27;;;;;;;75.28;44.33;;;;;;;1.17;83.84;102089.91;5089846;28;20419;-82
2022/01/25 11:58:00;;;;;;;81.53;46.50;;;;;;;1.47;83.81;102090.53;5080655;28;20398;-82
2022/01/25 12:01:03;;;;;;;72.05;42.92;;;;;;;1.54;81.95;102091.66;5085007;28;20409;-81
2022/01/25 12:03:44;;;;;;;74.80;42.75;;;;;;;1.32;83.52;102085.78;5074165;28;20564;-81
2022/01/25 12:06:27;;;;;;;76.22;43.78;;;;;;;1.50;83.30;102082.22;5078364;28;21060;-82
2022/01/25 12:09:06;;;;;;;75.82;43.67;;;;;;;1.41;82.85;102080.44;5075959;28;20400;-81
2022/01/25 12:11:58;;;;;;;74.78;45.10;;;;;;;1.33;83.58;102077.66;5082976;28;20403;-82
2022/01/25 12:14:40;;;;;;;75.43;46.25;;;;;;;1.26;84.17;102075.69;5076096;28;20413;-81
2022/01/25 12:17:05;;;;;;;82.55;48.38;;;;;;;1.43;83.70;102083.81;5078752;28;20910;-82
2022/01/25 12:19:30;;;;;;;78.20;46.60;;;;;;;1.58;83.59;102073.50;5075165;28;20400;-82
2022/01/25 12:25:15;;;;;;;79.97;48.30;;;;;;;1.82;82.05;102072.94;5090230;28;25118;-79
2022/01/25 12:27:46;;;;;;;82.75;48.13;;;;;;;1.61;82.42;102070.53;5085652;28;20402;-81
2022/01/25 12:30:15;;;;;;;80.97;48.95;;;;;;;1.54;83.15;102066.75;5085205;28;20404;-80
2022/01/25 12:33:08;;;;;;;81.55;48.35;;;;;;;1.76;83.07;102060.16;5081817;28;20390;-81
2022/01/25 12:36:09;;;;;;;81.05;46.72;;;;;;;1.97;81.77;102050.91;5091073;28;20889;-81
2022/01/25 12:38:37;;;;;;;78.65;46.47;;;;;;;1.85;81.75;102052.09;5010926;28;20415;-80
2022/01/25 12:44:25;;;;;;;83.35;49.55;;;;;;;1.75;83.15;102048.63;5081935;28;20496;-79
2022/01/25 12:46:50;;;;;;;87.45;48.67;;;;;;;1.80;82.95;102038.34;5086463;28;20485;-80
2022/01/25 12:49:20;;;;;;;85.88;48.85;;;;;;;1.94;82.26;102045.03;5084636;28;20394;-80
2022/01/25 12:51:50;;;;;;;71.68;44.75;;;;;;;1.87;82.29;102031.41;5078438;28;20428;-79